createdAt,value
2023-01-13T00:00:18.530Z,5.98
2023-01-13T00:01:22.611Z,5.97
2023-01-13T00:02:24.332Z,5.97
2023-01-13T00:03:26.295Z,5.96
2023-01-13T00:04:29.344Z,5.95
2023-01-13T00:05:31.066Z,6.01
2023-01-13T00:06:33.134Z,5.99
2023-01-13T00:07:34.870Z,6.06
2023-01-13T00:08:36.676Z,6.06
2023-01-13T00:09:39.797Z,6.04
2023-01-13T00:10:41.565Z,6.00
2023-01-13T00:11:43.741Z,6.00
2023-01-13T00:12:45.818Z,6.00
2023-01-13T00:13:48.257Z,6.02
2023-01-13T00:14:50.381Z,6.08
2023-01-13T00:16:04.181Z,6.01
2023-01-13T00:17:05.950Z,6.04
2023-01-13T00:18:07.656Z,5.98
2023-01-13T00:19:09.472Z,6.00
2023-01-13T00:20:12.125Z,6.00
2023-01-13T00:21:19.522Z,5.94
2023-01-13T00:22:23.526Z,5.97
2023-01-13T00:23:25.238Z,5.99
2023-01-13T00:24:27.252Z,5.91
2023-01-13T00:25:29.253Z,5.84
2023-01-13T00:26:33.717Z,5.79
2023-01-13T00:27:36.089Z,5.79
2023-01-13T00:28:38.692Z,5.77
2023-01-13T00:29:40.564Z,5.76
2023-01-13T00:30:42.665Z,5.72
2023-01-13T00:31:44.251Z,5.76
2023-01-13T00:32:49.004Z,5.78
2023-01-13T00:33:51.143Z,5.79
2023-01-13T00:34:53.413Z,5.85
2023-01-13T00:35:59.066Z,5.82
2023-01-13T00:37:01.099Z,5.78
2023-01-13T00:38:03.215Z,5.79
2023-01-13T00:39:04.960Z,5.80
2023-01-13T00:40:07.756Z,5.80
2023-01-13T00:41:11.418Z,5.73
2023-01-13T00:42:31.882Z,5.65
2023-01-13T00:43:35.199Z,5.69
2023-01-13T00:44:37.323Z,5.63
2023-01-13T00:45:39.549Z,5.71
2023-01-13T00:46:41.670Z,5.78
2023-01-13T00:47:43.690Z,5.69
2023-01-13T00:48:46.288Z,5.72
2023-01-13T00:49:47.844Z,5.71
2023-01-13T00:50:57.329Z,5.68
2023-01-13T00:51:59.048Z,5.70
2023-01-13T00:53:00.918Z,5.69
2023-01-13T00:54:02.618Z,5.72
2023-01-13T00:55:04.617Z,5.70
2023-01-13T00:56:10.416Z,5.73
2023-01-13T00:57:12.240Z,5.73
2023-01-13T00:58:13.963Z,5.73
2023-01-13T00:59:15.953Z,5.79
2023-01-13T01:00:18.210Z,5.84
2023-01-13T01:01:22.353Z,5.77
2023-01-13T01:02:24.254Z,5.86
2023-01-13T01:03:26.532Z,5.85
2023-01-13T01:04:28.327Z,5.82
2023-01-13T01:05:30.036Z,5.83
2023-01-13T01:06:31.981Z,5.82
2023-01-13T01:07:33.719Z,5.83
2023-01-13T01:08:35.908Z,5.93
2023-01-13T01:09:39.654Z,5.99
2023-01-13T01:10:41.469Z,6.04
2023-01-13T01:11:43.979Z,6.14
2023-01-13T01:12:45.529Z,6.18
2023-01-13T01:13:48.113Z,6.13
2023-01-13T01:14:49.988Z,6.15
2023-01-13T01:15:51.783Z,6.14
2023-01-13T01:16:54.669Z,6.12
2023-01-13T01:17:56.457Z,6.14
2023-01-13T01:18:58.702Z,6.17
2023-01-13T01:20:00.427Z,6.23
2023-01-13T01:21:02.366Z,6.21
2023-01-13T01:22:04.422Z,6.24
2023-01-13T01:23:06.476Z,6.24
2023-01-13T01:24:09.754Z,6.19
2023-01-13T01:25:11.440Z,6.20
2023-01-13T01:26:15.509Z,6.21
2023-01-13T01:27:17.187Z,6.27
2023-01-13T01:28:20.702Z,6.34
2023-01-13T01:29:22.686Z,6.41
2023-01-13T01:30:24.576Z,6.38
2023-01-13T01:31:29.004Z,6.38
2023-01-13T01:32:31.038Z,6.42
2023-01-13T01:33:32.813Z,6.42
2023-01-13T01:34:34.656Z,6.45
2023-01-13T01:35:40.033Z,6.41
2023-01-13T01:36:41.947Z,6.45
2023-01-13T01:37:44.120Z,6.44
2023-01-13T01:38:47.127Z,6.50
2023-01-13T01:39:48.867Z,6.46
2023-01-13T01:40:50.625Z,6.48
2023-01-13T01:42:15.364Z,6.46
2023-01-13T01:43:41.211Z,6.47
2023-01-13T01:44:43.331Z,6.44
2023-01-13T01:45:45.130Z,6.50
2023-01-13T01:46:46.807Z,6.50
2023-01-13T01:47:51.760Z,6.49
2023-01-13T01:48:53.889Z,6.50
2023-01-13T01:49:56.741Z,6.45
2023-01-13T01:50:58.718Z,6.55
2023-01-13T01:52:08.016Z,6.51
2023-01-13T01:53:13.701Z,6.53
2023-01-13T01:54:26.483Z,6.53
2023-01-13T01:55:31.568Z,6.55
2023-01-13T01:56:33.986Z,6.51
2023-01-13T01:57:54.872Z,6.56
2023-01-13T01:58:56.690Z,6.45
2023-01-13T02:00:00.955Z,6.46
2023-01-13T02:01:02.926Z,6.42
2023-01-13T02:02:29.171Z,6.39
2023-01-13T02:03:30.843Z,6.33
2023-01-13T02:04:36.575Z,6.38
2023-01-13T02:05:38.954Z,6.43
2023-01-13T02:06:41.092Z,6.41
2023-01-13T02:07:43.587Z,6.42
2023-01-13T02:08:45.066Z,6.46
2023-01-13T02:09:47.237Z,6.35
2023-01-13T02:10:53.367Z,6.45
2023-01-13T02:12:13.576Z,6.38
2023-01-13T02:13:15.165Z,6.41
2023-01-13T02:14:17.343Z,6.41
2023-01-13T02:15:23.264Z,6.45
2023-01-13T02:16:24.904Z,6.38
2023-01-13T02:18:04.075Z,6.45
2023-01-13T02:19:30.656Z,6.31
2023-01-13T02:20:55.227Z,6.43
2023-01-13T02:22:27.667Z,6.46
2023-01-13T02:23:57.606Z,6.42
2023-01-13T02:25:26.572Z,6.44
2023-01-13T02:26:52.373Z,6.39
2023-01-13T02:28:11.332Z,6.48
2023-01-13T02:29:37.657Z,6.43
2023-01-13T02:31:28.635Z,6.42
2023-01-13T02:32:34.468Z,6.48
2023-01-13T02:33:51.293Z,6.39
2023-01-13T02:35:01.549Z,6.48
2023-01-13T02:36:18.280Z,6.49
2023-01-13T02:37:28.613Z,6.42
2023-01-13T02:38:34.760Z,6.54
2023-01-13T02:39:41.910Z,6.57
2023-01-13T02:40:56.800Z,6.50
2023-01-13T02:42:26.524Z,6.57
2023-01-13T02:43:48.307Z,6.57
2023-01-13T02:45:02.895Z,6.54
2023-01-13T02:46:30.163Z,6.58
2023-01-13T02:47:36.101Z,6.56
2023-01-13T02:48:38.527Z,6.58
2023-01-13T02:49:45.392Z,6.54
2023-01-13T02:51:17.528Z,6.55
2023-01-13T02:52:42.957Z,6.53
2023-01-13T02:54:04.046Z,6.36
2023-01-13T02:55:28.723Z,6.45
2023-01-13T02:56:31.833Z,6.49
2023-01-13T02:57:34.715Z,6.49
2023-01-13T02:58:37.528Z,6.49
2023-01-13T02:59:40.297Z,6.55
2023-01-13T03:00:42.333Z,6.55
2023-01-13T03:01:44.044Z,6.58
2023-01-13T03:02:47.997Z,6.51
2023-01-13T03:03:50.127Z,6.52
2023-01-13T03:05:02.159Z,6.54
2023-01-13T03:06:29.962Z,6.44
2023-01-13T03:08:09.159Z,6.52
2023-01-13T03:09:22.953Z,6.39
2023-01-13T03:10:39.901Z,6.36
2023-01-13T03:12:10.692Z,6.37
2023-01-13T03:13:46.903Z,6.38
2023-01-13T03:14:59.852Z,6.45
2023-01-13T03:16:11.089Z,6.51
2023-01-13T03:17:22.487Z,6.49
2023-01-13T03:18:43.019Z,6.37
2023-01-13T03:19:52.225Z,6.34
2023-01-13T03:21:27.323Z,6.36
2023-01-13T03:22:39.887Z,6.53
2023-01-13T03:23:49.698Z,6.49
2023-01-13T03:25:14.227Z,6.42
2023-01-13T03:26:40.400Z,6.46
2023-01-13T03:28:13.514Z,6.53
2023-01-13T03:29:22.657Z,6.52
2023-01-13T03:30:34.435Z,6.54
2023-01-13T03:31:41.247Z,6.55
2023-01-13T03:32:45.444Z,6.58
2023-01-13T03:33:55.820Z,6.58
2023-01-13T03:35:05.009Z,6.51
2023-01-13T03:36:09.484Z,6.53
2023-01-13T03:37:12.789Z,6.53
2023-01-13T03:38:21.123Z,6.49
2023-01-13T03:39:28.027Z,6.50
2023-01-13T03:40:33.817Z,6.47
2023-01-13T03:41:39.190Z,6.58
2023-01-13T03:42:41.977Z,6.58
2023-01-13T03:44:12.481Z,6.58
2023-01-13T03:45:17.729Z,6.62
2023-01-13T03:47:04.460Z,6.61
2023-01-13T03:48:09.086Z,6.53
2023-01-13T03:49:14.069Z,6.57
2023-01-13T03:50:21.959Z,6.57
2023-01-13T03:51:25.253Z,6.55
2023-01-13T03:52:31.910Z,6.65
2023-01-13T03:53:37.849Z,6.56
2023-01-13T03:54:48.453Z,6.60
2023-01-13T03:55:58.167Z,6.58
2023-01-13T03:57:04.117Z,6.60
2023-01-13T03:58:10.441Z,6.61
2023-01-13T03:59:17.511Z,6.63
2023-01-13T04:00:23.673Z,6.65
2023-01-13T04:01:29.576Z,6.63
2023-01-13T04:02:47.361Z,6.64
2023-01-13T04:04:05.613Z,6.68
2023-01-13T04:05:09.374Z,6.69
2023-01-13T04:06:21.473Z,6.65
2023-01-13T04:07:25.911Z,6.70
2023-01-13T04:08:28.321Z,6.72
2023-01-13T04:09:48.096Z,6.78
2023-01-13T04:10:53.723Z,6.73
2023-01-13T04:12:01.649Z,6.75
2023-01-13T04:13:07.016Z,6.78
2023-01-13T04:14:10.637Z,6.80
2023-01-13T04:15:12.324Z,6.76
2023-01-13T04:16:14.037Z,6.79
2023-01-13T04:17:16.257Z,6.70
2023-01-13T04:18:28.602Z,6.73
2023-01-13T04:19:31.267Z,6.74
2023-01-13T04:20:32.872Z,6.69
2023-01-13T04:21:35.473Z,6.80
2023-01-13T04:22:37.107Z,6.87
2023-01-13T04:23:38.771Z,6.88
2023-01-13T04:24:40.361Z,6.79
2023-01-13T04:25:42.919Z,6.78
2023-01-13T04:26:44.366Z,6.78
2023-01-13T04:27:45.961Z,6.85
2023-01-13T04:28:47.711Z,6.80
2023-01-13T04:29:49.242Z,6.83
2023-01-13T04:30:50.870Z,6.89
2023-01-13T04:31:52.511Z,6.86
2023-01-13T04:32:54.108Z,6.92
2023-01-13T04:33:55.822Z,6.94
2023-01-13T04:34:57.882Z,7.01
2023-01-13T04:35:59.560Z,7.07
2023-01-13T04:37:01.114Z,7.06
2023-01-13T04:38:04.357Z,7.10
2023-01-13T04:39:06.001Z,7.05
2023-01-13T04:40:08.360Z,7.07
2023-01-13T04:41:09.960Z,7.07
2023-01-13T04:42:11.521Z,7.01
2023-01-13T04:43:15.591Z,7.03
2023-01-13T04:44:17.235Z,6.98
2023-01-13T04:45:18.865Z,7.06
2023-01-13T04:46:20.572Z,7.03
2023-01-13T04:47:22.458Z,6.97
2023-01-13T04:48:24.034Z,7.00
2023-01-13T04:49:25.720Z,7.05
2023-01-13T04:50:27.782Z,7.07
2023-01-13T04:51:29.369Z,7.11
2023-01-13T04:52:31.070Z,7.10
2023-01-13T04:53:32.620Z,7.12
2023-01-13T04:54:34.288Z,7.17
2023-01-13T04:55:35.931Z,7.21
2023-01-13T04:56:37.525Z,7.19
2023-01-13T04:57:39.158Z,7.26
2023-01-13T04:58:40.751Z,7.30
2023-01-13T04:59:42.473Z,7.27
2023-01-13T05:00:44.119Z,7.25
2023-01-13T05:01:45.870Z,7.19
2023-01-13T05:02:50.102Z,7.25
2023-01-13T05:03:51.730Z,7.24
2023-01-13T05:04:53.424Z,7.28
2023-01-13T05:05:55.023Z,7.30
2023-01-13T05:06:56.737Z,7.30
2023-01-13T05:07:58.542Z,7.25
2023-01-13T05:09:00.113Z,7.34
2023-01-13T05:10:01.977Z,7.28
2023-01-13T05:11:26.286Z,7.32
2023-01-13T05:12:46.522Z,7.28
2023-01-13T05:14:06.503Z,7.32
2023-01-13T05:15:28.438Z,7.31
2023-01-13T05:16:48.321Z,7.34
2023-01-13T05:17:50.345Z,7.22
2023-01-13T05:18:51.939Z,7.37
2023-01-13T05:19:53.561Z,7.35
2023-01-13T05:20:55.152Z,7.31
2023-01-13T05:22:16.408Z,7.36
2023-01-13T05:23:36.609Z,7.45
2023-01-13T05:24:56.845Z,7.42
2023-01-13T05:25:58.511Z,7.52
2023-01-13T05:27:00.149Z,7.49
2023-01-13T05:28:01.773Z,7.44
2023-01-13T05:29:03.373Z,7.44
2023-01-13T05:30:06.084Z,7.46
2023-01-13T05:31:07.783Z,7.51
2023-01-13T05:32:09.462Z,7.38
2023-01-13T05:33:12.293Z,7.36
2023-01-13T05:34:13.943Z,7.43
2023-01-13T05:35:16.153Z,7.38
2023-01-13T05:36:18.526Z,7.36
2023-01-13T05:37:20.157Z,7.40
2023-01-13T05:38:21.851Z,7.36
2023-01-13T05:39:23.488Z,7.36
2023-01-13T05:40:43.775Z,7.36
2023-01-13T05:42:03.957Z,7.40
2023-01-13T05:43:19.808Z,7.31
2023-01-13T05:44:21.406Z,7.35
2023-01-13T05:45:23.456Z,7.29
2023-01-13T05:46:25.186Z,7.31
2023-01-13T05:47:26.814Z,7.36
2023-01-13T05:48:32.214Z,7.29
2023-01-13T05:49:33.868Z,7.33
2023-01-13T05:50:35.418Z,7.28
2023-01-13T05:51:39.873Z,7.28
2023-01-13T05:52:41.547Z,7.20
2023-01-13T05:53:43.152Z,7.27
2023-01-13T05:54:44.747Z,7.26
2023-01-13T05:55:46.748Z,7.29
2023-01-13T05:56:48.494Z,7.26
2023-01-13T05:57:50.062Z,7.25
2023-01-13T05:58:51.561Z,7.16
2023-01-13T05:59:53.174Z,7.25
2023-01-13T06:01:02.951Z,7.22
2023-01-13T06:02:04.649Z,7.14
2023-01-13T06:03:06.476Z,7.14
2023-01-13T06:04:08.068Z,7.22
2023-01-13T06:05:09.683Z,7.15
2023-01-13T06:06:11.312Z,7.18
2023-01-13T06:07:12.920Z,7.17
2023-01-13T06:08:14.914Z,7.14
2023-01-13T06:09:16.593Z,7.20
2023-01-13T06:10:18.243Z,7.15
2023-01-13T06:11:19.830Z,7.23
2023-01-13T06:12:21.475Z,7.17
2023-01-13T06:13:25.179Z,7.17
2023-01-13T06:14:39.890Z,7.19
2023-01-13T06:15:41.502Z,7.25
2023-01-13T06:16:43.190Z,7.31
2023-01-13T06:17:44.816Z,7.28
2023-01-13T06:18:46.401Z,7.23
2023-01-13T06:19:48.027Z,7.26
2023-01-13T06:20:49.590Z,7.23
2023-01-13T06:21:51.213Z,7.23
2023-01-13T06:22:53.571Z,7.25
2023-01-13T06:23:55.164Z,7.24
2023-01-13T06:24:56.744Z,7.20
2023-01-13T06:26:07.988Z,7.17
2023-01-13T06:27:10.006Z,7.21
2023-01-13T06:28:11.638Z,7.27
2023-01-13T06:29:15.000Z,7.22
2023-01-13T06:30:17.497Z,7.23
2023-01-13T06:31:19.000Z,7.24
2023-01-13T06:32:24.626Z,7.21
2023-01-13T06:33:32.837Z,7.13
2023-01-13T06:34:35.612Z,7.22
2023-01-13T06:35:37.955Z,7.23
2023-01-13T06:36:46.510Z,7.24
2023-01-13T06:37:50.259Z,7.23
2023-01-13T06:38:54.868Z,7.25
2023-01-13T06:39:58.555Z,7.23
2023-01-13T06:41:00.147Z,7.29
2023-01-13T06:42:21.849Z,7.27
2023-01-13T06:43:23.484Z,7.21
2023-01-13T06:44:25.119Z,7.26
2023-01-13T06:45:27.651Z,7.31
2023-01-13T06:46:29.189Z,7.33
2023-01-13T06:47:31.500Z,7.29
2023-01-13T06:48:35.191Z,7.29
2023-01-13T06:49:37.002Z,7.32
2023-01-13T06:50:38.934Z,7.35
2023-01-13T06:51:40.493Z,7.38
2023-01-13T06:52:42.083Z,7.45
2023-01-13T06:53:43.704Z,7.42
2023-01-13T06:54:45.289Z,7.43
2023-01-13T06:55:47.018Z,7.43
2023-01-13T06:56:48.615Z,7.39
2023-01-13T06:57:52.202Z,7.40
2023-01-13T06:58:53.820Z,7.41
2023-01-13T06:59:55.439Z,7.39
2023-01-13T07:01:00.619Z,7.43
2023-01-13T07:02:02.910Z,7.41
2023-01-13T07:03:07.220Z,7.46
2023-01-13T07:04:08.935Z,7.39
2023-01-13T07:05:10.922Z,7.43
2023-01-13T07:06:12.498Z,7.39
2023-01-13T07:07:14.282Z,7.45
2023-01-13T07:08:15.843Z,7.45
2023-01-13T07:09:17.459Z,7.50
2023-01-13T07:10:22.228Z,7.48
2023-01-13T07:11:24.961Z,7.53
2023-01-13T07:12:26.606Z,7.41
2023-01-13T07:13:46.870Z,7.45
2023-01-13T07:15:07.144Z,7.43
2023-01-13T07:16:10.013Z,7.45
2023-01-13T07:17:11.774Z,7.48
2023-01-13T07:18:13.379Z,7.55
2023-01-13T07:19:15.887Z,7.43
2023-01-13T07:20:17.422Z,7.44
2023-01-13T07:21:20.058Z,7.43
2023-01-13T07:22:21.708Z,7.44
2023-01-13T07:23:24.236Z,7.48
2023-01-13T07:24:25.805Z,7.48
2023-01-13T07:25:27.471Z,7.45
2023-01-13T07:26:29.066Z,7.48
2023-01-13T07:27:30.699Z,7.49
2023-01-13T07:28:32.533Z,7.44
2023-01-13T07:29:34.127Z,7.46
2023-01-13T07:30:35.757Z,7.44
2023-01-13T07:31:37.507Z,7.47
2023-01-13T07:32:39.447Z,7.43
2023-01-13T07:33:41.075Z,7.46
2023-01-13T07:34:42.672Z,7.43
2023-01-13T07:35:45.062Z,7.46
2023-01-13T07:36:46.670Z,7.51
2023-01-13T07:37:48.721Z,7.46
2023-01-13T07:38:50.318Z,7.42
2023-01-13T07:39:51.954Z,7.49
2023-01-13T07:40:53.566Z,7.44
2023-01-13T07:42:13.888Z,7.43
2023-01-13T07:43:33.939Z,7.41
2023-01-13T07:44:35.645Z,7.42
2023-01-13T07:45:37.303Z,7.39
2023-01-13T07:46:39.127Z,7.45
2023-01-13T07:47:40.900Z,7.36
2023-01-13T07:48:42.628Z,7.40
2023-01-13T07:49:44.276Z,7.44
2023-01-13T07:50:45.928Z,7.46
2023-01-13T07:51:47.615Z,7.53
2023-01-13T07:52:50.453Z,7.44
2023-01-13T07:53:52.031Z,7.44
2023-01-13T07:54:53.634Z,7.48
2023-01-13T07:55:56.907Z,7.50
2023-01-13T07:56:58.578Z,7.41
2023-01-13T07:58:00.255Z,7.43
2023-01-13T07:59:01.960Z,7.39
2023-01-13T08:00:05.182Z,7.39
2023-01-13T08:01:12.170Z,7.49
2023-01-13T08:02:14.071Z,7.54
2023-01-13T08:03:15.857Z,7.57
2023-01-13T08:04:17.439Z,7.57
2023-01-13T08:05:19.087Z,7.59
2023-01-13T08:06:20.701Z,7.53
2023-01-13T08:07:22.278Z,7.60
2023-01-13T08:08:23.988Z,7.60
2023-01-13T08:09:25.636Z,7.57
2023-01-13T08:10:27.313Z,7.57
2023-01-13T08:11:28.858Z,7.61
2023-01-13T08:12:53.787Z,7.61
2023-01-13T08:13:58.821Z,7.57
2023-01-13T08:15:00.433Z,7.58
2023-01-13T08:16:10.247Z,7.64
2023-01-13T08:17:11.897Z,7.60
2023-01-13T08:18:13.782Z,7.62
2023-01-13T08:19:15.472Z,7.54
2023-01-13T08:20:17.129Z,7.43
2023-01-13T08:21:18.725Z,7.45
2023-01-13T08:22:20.334Z,7.38
2023-01-13T08:23:22.934Z,7.42
2023-01-13T08:24:24.461Z,7.40
2023-01-13T08:25:27.423Z,7.41
2023-01-13T08:26:28.999Z,7.44
2023-01-13T08:27:30.595Z,7.43
2023-01-13T08:28:32.509Z,7.53
2023-01-13T08:29:34.107Z,7.53
2023-01-13T08:30:35.816Z,7.56
2023-01-13T08:31:37.454Z,7.58
2023-01-13T08:32:39.046Z,7.61
2023-01-13T08:33:40.676Z,7.56
2023-01-13T08:34:42.288Z,7.62
2023-01-13T08:35:43.933Z,7.48
2023-01-13T08:36:45.529Z,7.54
2023-01-13T08:37:47.923Z,7.58
2023-01-13T08:38:49.597Z,7.59
2023-01-13T08:39:51.209Z,7.59
2023-01-13T08:40:52.964Z,7.59
2023-01-13T08:41:58.404Z,7.63
2023-01-13T08:43:00.581Z,7.65
2023-01-13T08:44:02.215Z,7.71
2023-01-13T08:45:04.609Z,7.72
2023-01-13T08:46:06.714Z,7.72
2023-01-13T08:47:08.408Z,7.71
2023-01-13T08:48:10.088Z,7.77
2023-01-13T08:49:11.716Z,7.75
2023-01-13T08:50:14.438Z,7.78
2023-01-13T08:51:16.060Z,7.83
2023-01-13T08:52:17.714Z,7.83
2023-01-13T08:53:20.090Z,7.86
2023-01-13T08:54:21.745Z,7.86
2023-01-13T08:55:23.381Z,7.77
2023-01-13T08:56:25.051Z,7.75
2023-01-13T08:57:26.734Z,7.77
2023-01-13T08:58:28.561Z,7.72
2023-01-13T08:59:30.341Z,7.68
2023-01-13T09:00:31.953Z,7.77
2023-01-13T09:01:33.999Z,7.71
2023-01-13T09:02:35.751Z,7.74
2023-01-13T09:03:39.080Z,7.74
2023-01-13T09:04:40.821Z,7.78
2023-01-13T09:05:42.540Z,7.75
2023-01-13T09:06:44.848Z,7.71
2023-01-13T09:07:46.464Z,7.70
2023-01-13T09:08:48.111Z,7.77
2023-01-13T09:09:49.777Z,7.93
2023-01-13T09:10:51.793Z,7.95
2023-01-13T09:12:12.397Z,8.01
2023-01-13T09:13:14.528Z,8.10
2023-01-13T09:14:20.817Z,8.28
2023-01-13T09:15:22.487Z,8.47
2023-01-13T09:16:24.122Z,8.38
2023-01-13T09:17:25.991Z,8.30
2023-01-13T09:18:27.628Z,8.26
2023-01-13T09:19:29.653Z,8.65
2023-01-13T09:20:31.279Z,8.66
2023-01-13T09:21:32.938Z,8.74
2023-01-13T09:22:36.362Z,9.53
2023-01-13T09:23:37.959Z,9.58
2023-01-13T09:24:39.584Z,9.11
2023-01-13T09:25:41.318Z,9.18
2023-01-13T09:26:42.925Z,8.83
2023-01-13T09:27:44.504Z,8.79
2023-01-13T09:28:46.124Z,9.09
2023-01-13T09:29:47.877Z,9.47
2023-01-13T09:30:49.518Z,9.30
2023-01-13T09:31:51.145Z,9.18
2023-01-13T09:33:12.775Z,9.19
2023-01-13T09:34:35.461Z,8.96
2023-01-13T09:35:37.131Z,9.37
2023-01-13T09:36:38.966Z,9.92
2023-01-13T09:37:41.369Z,10.07
2023-01-13T09:38:43.020Z,10.45
2023-01-13T09:39:44.640Z,10.40
2023-01-13T09:40:48.234Z,10.58
2023-01-13T09:42:09.624Z,10.49
2023-01-13T09:43:49.597Z,10.52
2023-01-13T09:45:08.865Z,9.86
2023-01-13T09:46:44.054Z,10.00
2023-01-13T09:47:58.124Z,10.18
2023-01-13T09:49:00.206Z,9.87
2023-01-13T09:50:26.967Z,9.89
2023-01-13T09:51:30.820Z,9.85
2023-01-13T09:52:32.531Z,9.77
2023-01-13T09:53:38.666Z,9.58
2023-01-13T09:54:43.366Z,9.48
2023-01-13T09:55:45.609Z,9.63
2023-01-13T09:56:47.513Z,9.48
2023-01-13T09:57:49.113Z,9.62
2023-01-13T09:58:50.751Z,9.55
2023-01-13T09:59:52.347Z,9.70
2023-01-13T10:01:19.047Z,9.83
2023-01-13T10:02:39.707Z,9.88
2023-01-13T10:03:41.415Z,9.87
2023-01-13T10:04:43.134Z,10.07
2023-01-13T10:05:52.055Z,10.27
2023-01-13T10:06:58.057Z,10.43
2023-01-13T10:08:05.231Z,11.10
2023-01-13T10:09:13.655Z,10.57
2023-01-13T10:10:40.537Z,10.41
2023-01-13T10:12:02.254Z,10.04
2023-01-13T10:13:14.242Z,9.65
2023-01-13T10:14:19.270Z,9.38
2023-01-13T10:15:23.111Z,9.25
2023-01-13T10:16:41.961Z,9.11
2023-01-13T10:17:51.666Z,9.00
2023-01-13T10:19:06.892Z,8.94
2023-01-13T10:20:27.912Z,8.99
2023-01-13T10:21:41.654Z,8.95
2023-01-13T10:22:52.078Z,8.83
2023-01-13T10:24:01.706Z,8.86
2023-01-13T10:25:20.420Z,8.77
2023-01-13T10:26:40.515Z,8.80
2023-01-13T10:27:43.817Z,8.79
2023-01-13T10:28:52.098Z,8.75
2023-01-13T10:29:53.675Z,8.77
2023-01-13T10:30:55.356Z,8.68
2023-01-13T10:31:59.233Z,8.73
2023-01-13T10:33:17.384Z,8.81
2023-01-13T10:34:20.521Z,8.82
2023-01-13T10:35:50.977Z,8.86
2023-01-13T10:37:03.107Z,8.83
2023-01-13T10:38:04.760Z,8.89
2023-01-13T10:39:15.872Z,8.95
2023-01-13T10:40:18.687Z,8.94
2023-01-13T10:41:25.590Z,8.88
2023-01-13T10:42:27.228Z,8.83
2023-01-13T10:43:29.946Z,8.75
2023-01-13T10:44:31.945Z,8.66
2023-01-13T10:45:33.604Z,8.70
2023-01-13T10:46:51.294Z,8.78
2023-01-13T10:48:06.791Z,8.82
2023-01-13T10:49:36.328Z,8.73
2023-01-13T10:50:38.592Z,8.68
2023-01-13T10:51:40.184Z,8.68
2023-01-13T10:52:56.808Z,8.67
2023-01-13T10:54:00.578Z,8.61
2023-01-13T10:55:02.483Z,8.66
2023-01-13T10:56:05.630Z,8.60
2023-01-13T10:57:35.948Z,8.64
2023-01-13T10:58:37.589Z,8.55
2023-01-13T10:59:39.174Z,8.67
2023-01-13T11:00:40.836Z,8.71
2023-01-13T11:02:13.001Z,8.81
2023-01-13T11:03:22.350Z,8.86
2023-01-13T11:04:39.306Z,9.00
2023-01-13T11:05:48.333Z,9.04
2023-01-13T11:06:49.943Z,8.96
2023-01-13T11:07:54.483Z,9.03
2023-01-13T11:08:58.444Z,8.94
2023-01-13T11:10:08.941Z,8.89
2023-01-13T11:11:27.971Z,8.86
2023-01-13T11:12:34.191Z,8.86
2023-01-13T11:14:01.744Z,8.93
2023-01-13T11:15:07.740Z,8.94
2023-01-13T11:16:16.697Z,8.80
2023-01-13T11:17:27.546Z,8.77
2023-01-13T11:18:32.290Z,8.80
2023-01-13T11:19:34.644Z,8.82
2023-01-13T11:20:41.287Z,8.82
2023-01-13T11:22:02.932Z,8.86
2023-01-13T11:23:13.522Z,8.79
2023-01-13T11:24:24.544Z,8.79
2023-01-13T11:25:42.086Z,8.75
2023-01-13T11:27:23.948Z,8.78
2023-01-13T11:28:36.378Z,8.75
2023-01-13T11:30:12.277Z,8.61
2023-01-13T11:31:22.709Z,8.60
2023-01-13T11:32:24.925Z,8.62
2023-01-13T11:33:30.481Z,8.54
2023-01-13T11:34:40.631Z,8.61
2023-01-13T11:35:46.160Z,8.57
2023-01-13T11:36:51.727Z,8.62
2023-01-13T11:38:04.648Z,8.57
2023-01-13T11:39:19.154Z,8.57
2023-01-13T11:40:48.827Z,8.58
2023-01-13T11:42:16.202Z,8.56
2023-01-13T11:43:28.694Z,8.51
2023-01-13T11:44:47.034Z,8.51
2023-01-13T11:45:55.284Z,8.53
2023-01-13T11:46:56.944Z,8.60
2023-01-13T11:48:00.363Z,8.62
2023-01-13T11:49:03.678Z,8.60
2023-01-13T11:50:15.136Z,8.57
2023-01-13T11:51:34.746Z,8.59
2023-01-13T11:52:45.425Z,8.56
2023-01-13T11:53:53.243Z,8.66
2023-01-13T11:55:16.401Z,8.77
2023-01-13T11:56:57.467Z,9.09
2023-01-13T11:58:28.974Z,9.19
2023-01-13T11:59:40.970Z,9.20
2023-01-13T12:00:45.862Z,9.13
2023-01-13T12:02:11.846Z,9.36
2023-01-13T12:03:19.173Z,9.38
2023-01-13T12:04:25.178Z,9.38
2023-01-13T12:05:42.772Z,9.28
2023-01-13T12:06:46.044Z,9.31
2023-01-13T12:08:10.907Z,9.23
2023-01-13T12:09:57.599Z,9.25
2023-01-13T12:10:59.265Z,9.17
2023-01-13T12:12:20.028Z,9.24
2023-01-13T12:13:27.473Z,9.25
2023-01-13T12:15:07.018Z,9.20
2023-01-13T12:16:15.019Z,9.14
2023-01-13T12:17:34.951Z,9.13
2023-01-13T12:19:07.740Z,9.06
2023-01-13T12:20:23.662Z,8.97
2023-01-13T12:21:38.843Z,8.95
2023-01-13T12:22:41.695Z,9.20
2023-01-13T12:24:04.706Z,9.51
2023-01-13T12:25:15.648Z,9.81
2023-01-13T12:26:17.597Z,9.72
2023-01-13T12:27:27.230Z,9.79
2023-01-13T12:28:41.617Z,9.76
2023-01-13T12:29:44.695Z,9.70
2023-01-13T12:30:52.050Z,9.60
2023-01-13T12:31:53.992Z,9.51
2023-01-13T12:33:00.793Z,9.33
2023-01-13T12:34:32.358Z,9.37
2023-01-13T12:35:39.023Z,9.38
2023-01-13T12:36:59.235Z,9.37
2023-01-13T12:38:13.679Z,9.47
2023-01-13T12:39:18.432Z,9.47
2023-01-13T12:40:20.153Z,9.55
2023-01-13T12:41:27.622Z,9.40
2023-01-13T12:42:52.573Z,9.32
2023-01-13T12:44:12.855Z,9.34
2023-01-13T12:45:14.458Z,9.36
2023-01-13T12:46:19.081Z,9.46
2023-01-13T12:47:53.237Z,9.42
2023-01-13T12:48:56.657Z,9.34
2023-01-13T12:50:26.153Z,9.29
2023-01-13T12:51:52.600Z,9.25
2023-01-13T12:53:01.564Z,9.20
2023-01-13T12:54:32.164Z,9.10
2023-01-13T12:55:35.044Z,9.00
2023-01-13T12:56:42.211Z,9.08
2023-01-13T12:57:55.739Z,9.03
2023-01-13T12:59:19.419Z,8.92
2023-01-13T13:00:21.144Z,8.96
2023-01-13T13:01:35.355Z,8.83
2023-01-13T13:02:41.162Z,8.80
2023-01-13T13:04:21.636Z,8.74
2023-01-13T13:05:23.198Z,8.76
2023-01-13T13:06:29.542Z,8.75
2023-01-13T13:07:31.085Z,8.68
2023-01-13T13:08:45.218Z,8.71
2023-01-13T13:09:53.401Z,8.69
2023-01-13T13:11:34.659Z,8.80
2023-01-13T13:13:01.148Z,8.74
2023-01-13T13:14:05.533Z,8.73
2023-01-13T13:15:28.768Z,8.82
2023-01-13T13:16:30.441Z,8.90
2023-01-13T13:17:32.094Z,8.95
2023-01-13T13:18:33.971Z,8.91
2023-01-13T13:19:35.501Z,8.91
2023-01-13T13:21:09.846Z,8.97
2023-01-13T13:22:19.050Z,8.93
2023-01-13T13:23:28.099Z,8.87
2023-01-13T13:24:29.739Z,8.78
2023-01-13T13:25:31.498Z,8.25
2023-01-13T13:26:38.712Z,7.26
2023-01-13T13:27:50.607Z,6.68
2023-01-13T13:29:13.866Z,6.23
2023-01-13T13:30:27.137Z,5.77
2023-01-13T13:31:47.342Z,5.42
2023-01-13T13:33:28.090Z,5.31
2023-01-13T13:35:03.207Z,5.15
2023-01-13T13:36:35.575Z,5.05
2023-01-13T13:38:05.092Z,5.07
2023-01-13T13:39:37.596Z,5.01
2023-01-13T13:41:03.113Z,4.87
2023-01-13T13:42:34.463Z,4.90
2023-01-13T13:44:03.198Z,4.88
2023-01-13T13:45:40.304Z,4.83
2023-01-13T13:46:49.114Z,4.71
2023-01-13T13:47:51.521Z,4.77
2023-01-13T13:48:54.644Z,4.81
2023-01-13T13:50:04.779Z,4.82
2023-01-13T13:51:28.809Z,4.89
2023-01-13T13:52:35.998Z,4.93
2023-01-13T13:53:40.640Z,4.98
2023-01-13T13:54:47.561Z,5.05
2023-01-13T13:55:59.771Z,5.03
2023-01-13T13:57:01.492Z,5.11
2023-01-13T13:58:03.107Z,5.10
2023-01-13T13:59:04.737Z,5.00
2023-01-13T14:00:27.879Z,4.97
2023-01-13T14:01:40.890Z,4.82
2023-01-13T14:02:48.723Z,4.81
2023-01-13T14:04:18.285Z,4.86
2023-01-13T14:05:20.036Z,4.85
2023-01-13T14:06:24.331Z,4.89
2023-01-13T14:07:26.290Z,4.84
2023-01-13T14:08:30.078Z,4.79
2023-01-13T14:09:41.803Z,4.78
2023-01-13T14:10:45.946Z,4.76
2023-01-13T14:11:58.415Z,4.86
2023-01-13T14:13:01.503Z,4.77
2023-01-13T14:14:12.552Z,4.74
2023-01-13T14:15:35.265Z,4.77
2023-01-13T14:16:38.115Z,4.77
2023-01-13T14:17:39.704Z,4.74
2023-01-13T14:18:48.111Z,4.89
2023-01-13T14:20:05.316Z,4.74
2023-01-13T14:21:27.483Z,4.71
2023-01-13T14:22:29.161Z,4.77
2023-01-13T14:23:32.787Z,4.69
2023-01-13T14:24:45.407Z,4.77
2023-01-13T14:25:48.697Z,4.74
2023-01-13T14:26:53.104Z,4.68
2023-01-13T14:27:55.946Z,4.73
2023-01-13T14:28:59.335Z,4.73
2023-01-13T14:30:01.322Z,4.77
2023-01-13T14:31:04.273Z,4.88
2023-01-13T14:32:06.957Z,4.81
2023-01-13T14:33:15.901Z,4.72
2023-01-13T14:34:32.189Z,4.77
2023-01-13T14:35:34.394Z,4.69
2023-01-13T14:36:37.365Z,4.63
2023-01-13T14:37:40.904Z,4.59
2023-01-13T14:38:50.659Z,4.57
2023-01-13T14:39:52.454Z,4.51
2023-01-13T14:40:54.081Z,4.50
2023-01-13T14:41:55.807Z,4.58
2023-01-13T14:43:02.129Z,4.54
2023-01-13T14:44:28.940Z,4.64
2023-01-13T14:45:33.118Z,4.68
2023-01-13T14:46:37.657Z,4.64
2023-01-13T14:47:39.586Z,4.62
2023-01-13T14:48:47.032Z,4.56
2023-01-13T14:49:58.999Z,4.49
2023-01-13T14:51:00.773Z,4.42
2023-01-13T14:52:13.438Z,4.38
2023-01-13T14:53:47.577Z,4.31
2023-01-13T14:55:05.437Z,4.24
2023-01-13T14:56:49.572Z,4.27
2023-01-13T14:57:51.403Z,4.22
2023-01-13T14:58:53.060Z,4.27
2023-01-13T15:00:05.274Z,4.33